Time;durP1;ratioP1;P1;durP2;ratioP2;P2;SDS_P1;SDS_P2;PMS_P1;PMS_P2;Temp;Humidity;BMP_temperature;BMP_pressure;BME280_temperature;BME280_humidity;BME280_pressure;Samples;Min_cycle;Max_cycle;Signal;HPM_P1;HPM_P2
2021/04/09 00:01:42;;;;;;;452.55;250.75;;;;;;;;;;4964651;28;20391;-79
2021/04/09 00:04:08;;;;;;;453.45;251.35;;;;;;;;;;4992342;28;20054;-78
2021/04/09 00:06:34;;;;;;;416.80;245.77;;;;;;;;;;4974038;28;20374;-79
2021/04/09 00:09:00;;;;;;;458.90;252.18;;;;;;;;;;4974534;28;20061;-81
2021/04/09 00:11:26;;;;;;;445.52;248.20;;;;;;;;;;4971673;28;20113;-79
2021/04/09 00:13:52;;;;;;;415.92;244.52;;;;;;;;;;4973118;28;20479;-79
2021/04/09 00:16:18;;;;;;;416.23;241.25;;;;;;;;;;4975158;28;20696;-79
2021/04/09 00:18:44;;;;;;;471.98;248.18;;;;;;;;;;4964581;28;20102;-78
2021/04/09 00:21:10;;;;;;;460.42;258.52;;;;;;;;;;4992808;28;20435;-77
2021/04/09 00:23:36;;;;;;;406.40;239.02;;;;;;;;;;4972709;28;20591;-78
2021/04/09 00:26:02;;;;;;;403.02;235.27;;;;;;;;;;4973834;28;20030;-80
2021/04/09 00:28:28;;;;;;;468.35;252.43;;;;;;;;;;4973350;28;20034;-78
2021/04/09 00:30:54;;;;;;;453.00;249.00;;;;;;;;;;4973010;28;20391;-79
2021/04/09 00:33:20;;;;;;;467.13;258.27;;;;;;;;;;4974106;28;20030;-79
2021/04/09 00:35:46;;;;;;;455.48;255.50;;;;;;;;;;4974677;28;20141;-80
2021/04/09 00:38:13;;;;;;;463.08;257.67;;;;;;;;;;4975475;28;20364;-80
2021/04/09 00:40:40;;;;;;;454.30;250.80;;;;;;;;;;4978943;28;20026;-80
2021/04/09 00:43:07;;;;;;;442.13;252.38;;;;;;;;;;4976311;28;20153;-77
2021/04/09 00:45:35;;;;;;;434.38;253.63;;;;;;;;;;4967158;28;20085;-81
2021/04/09 00:48:01;;;;;;;416.20;233.82;;;;;;;;;;4978864;28;20034;-79
2021/04/09 00:50:27;;;;;;;417.23;247.32;;;;;;;;;;4994931;28;20031;-78
2021/04/09 00:52:53;;;;;;;463.30;249.10;;;;;;;;;;4978141;28;20041;-78
2021/04/09 00:55:19;;;;;;;450.48;244.48;;;;;;;;;;4979779;28;20061;-80
2021/04/09 00:57:45;;;;;;;414.30;245.57;;;;;;;;;;4978817;28;20030;-82
2021/04/09 01:00:12;;;;;;;406.05;230.90;;;;;;;;;;4996684;28;20064;-79
2021/04/09 01:02:39;;;;;;;414.13;235.30;;;;;;;;;;4977555;28;20587;-80
2021/04/09 01:05:12;;;;;;;476.58;253.75;;;;;;;;;;4995710;28;20039;-79
2021/04/09 01:07:41;;;;;;;452.08;256.00;;;;;;;;;;4978437;28;20034;-80
2021/04/09 01:10:08;;;;;;;452.30;254.50;;;;;;;;;;4962789;28;20070;-77
2021/04/09 01:12:35;;;;;;;451.98;248.73;;;;;;;;;;4971343;28;20023;-79
2021/04/09 01:15:01;;;;;;;413.83;234.77;;;;;;;;;;4958161;28;20038;-79
2021/04/09 01:17:49;;;;;;;472.73;257.02;;;;;;;;;;4977877;28;20034;-78
2021/04/09 01:20:33;;;;;;;448.38;245.35;;;;;;;;;;4978880;28;20033;-83
2021/04/09 01:23:18;;;;;;;412.50;240.00;;;;;;;;;;4995928;28;20057;-80
2021/04/09 01:25:56;;;;;;;414.65;239.55;;;;;;;;;;4995736;28;20478;-79
2021/04/09 01:28:22;;;;;;;421.15;242.32;;;;;;;;;;4977626;28;20031;-79
2021/04/09 01:31:07;;;;;;;465.20;252.48;;;;;;;;;;4977235;28;20418;-79
2021/04/09 01:33:35;;;;;;;409.17;236.40;;;;;;;;;;4970092;28;20146;-77
2021/04/09 01:36:08;;;;;;;406.05;237.77;;;;;;;;;;4970185;28;20083;-79
2021/04/09 01:38:37;;;;;;;451.73;248.23;;;;;;;;;;4991081;28;20037;-78
2021/04/09 01:41:05;;;;;;;456.30;250.63;;;;;;;;;;4947272;28;20019;-78
2021/04/09 01:43:31;;;;;;;457.02;260.58;;;;;;;;;;4972098;28;20038;-80
2021/04/09 01:45:58;;;;;;;463.90;261.95;;;;;;;;;;4977267;28;20090;-78
2021/04/09 01:48:24;;;;;;;460.20;257.58;;;;;;;;;;4955610;28;20039;-79
2021/04/09 01:50:51;;;;;;;411.85;235.25;;;;;;;;;;4980440;28;20042;-78
2021/04/09 01:53:18;;;;;;;417.98;246.90;;;;;;;;;;4974964;28;20031;-79
2021/04/09 01:55:46;;;;;;;466.83;254.90;;;;;;;;;;4943651;29;20039;-81
2021/04/09 01:58:13;;;;;;;455.40;254.68;;;;;;;;;;4965748;28;20037;-76
2021/04/09 02:00:39;;;;;;;455.73;260.48;;;;;;;;;;4979175;28;20049;-80
2021/04/09 02:03:07;;;;;;;421.17;247.82;;;;;;;;;;4971601;28;20039;-80
2021/04/09 02:05:33;;;;;;;414.27;243.43;;;;;;;;;;4975613;28;20035;-79
2021/04/09 02:08:00;;;;;;;435.80;244.57;;;;;;;;;;4976976;28;20555;-78
2021/04/09 02:10:27;;;;;;;475.38;260.75;;;;;;;;;;4988986;28;20030;-80
2021/04/09 02:12:53;;;;;;;461.90;256.35;;;;;;;;;;4988111;28;20353;-79
2021/04/09 02:15:23;;;;;;;422.77;246.13;;;;;;;;;;4988568;28;20015;-82
2021/04/09 02:17:49;;;;;;;459.40;252.27;;;;;;;;;;4984207;28;20692;-78
2021/04/09 02:20:16;;;;;;;409.80;243.18;;;;;;;;;;4954378;28;20030;-82
2021/04/09 02:22:43;;;;;;;412.92;241.55;;;;;;;;;;4940383;29;20135;-79
2021/04/09 02:25:10;;;;;;;415.17;244.48;;;;;;;;;;4978991;28;20107;-78
2021/04/09 02:27:37;;;;;;;489.38;266.33;;;;;;;;;;4989261;28;20058;-78
2021/04/09 02:30:10;;;;;;;458.73;254.55;;;;;;;;;;4986475;28;20027;-80
2021/04/09 02:32:36;;;;;;;458.10;255.77;;;;;;;;;;4993578;28;20137;-78
2021/04/09 02:35:04;;;;;;;450.15;252.82;;;;;;;;;;4956101;28;20043;-78
2021/04/09 02:37:30;;;;;;;412.50;239.00;;;;;;;;;;4972336;28;20097;-79
2021/04/09 02:39:57;;;;;;;421.50;242.13;;;;;;;;;;4993015;28;20030;-77
2021/04/09 02:42:23;;;;;;;413.00;242.00;;;;;;;;;;4976640;28;20035;-80
2021/04/09 02:44:49;;;;;;;415.40;237.43;;;;;;;;;;4974846;28;20038;-78
2021/04/09 02:47:21;;;;;;;466.88;259.25;;;;;;;;;;4975127;28;20026;-78
2021/04/09 02:49:48;;;;;;;451.55;256.45;;;;;;;;;;4993249;28;20030;-79
2021/04/09 02:52:16;;;;;;;412.05;239.75;;;;;;;;;;4976610;28;20042;-79
2021/04/09 02:54:43;;;;;;;421.48;244.23;;;;;;;;;;4993483;28;20044;-77
2021/04/09 02:57:10;;;;;;;414.95;241.80;;;;;;;;;;4976036;28;20026;-78
2021/04/09 02:59:36;;;;;;;475.55;256.40;;;;;;;;;;4993750;28;20537;-79
2021/04/09 03:02:03;;;;;;;452.48;262.05;;;;;;;;;;4974423;28;20030;-77
2021/04/09 03:04:30;;;;;;;459.38;257.00;;;;;;;;;;4975133;28;20489;-79
2021/04/09 03:06:56;;;;;;;466.35;270.08;;;;;;;;;;4974159;28;20034;-80
2021/04/09 03:09:23;;;;;;;411.65;244.27;;;;;;;;;;4973767;28;20121;-79
2021/04/09 03:11:49;;;;;;;409.92;245.32;;;;;;;;;;4970490;28;20077;-78
2021/04/09 03:14:15;;;;;;;409.25;243.68;;;;;;;;;;4974094;28;20113;-77
2021/04/09 03:16:50;;;;;;;469.80;262.25;;;;;;;;;;4978191;28;20030;-78
2021/04/09 03:19:16;;;;;;;455.10;262.00;;;;;;;;;;4972825;28;20026;-81
2021/04/09 03:21:42;;;;;;;457.20;262.52;;;;;;;;;;4992864;28;20035;-79
2021/04/09 03:24:08;;;;;;;453.83;254.75;;;;;;;;;;4975313;28;20033;-79
2021/04/09 03:26:34;;;;;;;422.88;242.75;;;;;;;;;;4962561;28;20062;-79
2021/04/09 03:29:00;;;;;;;463.75;257.05;;;;;;;;;;4967882;28;20034;-79
2021/04/09 03:31:26;;;;;;;417.23;242.57;;;;;;;;;;4984304;28;20486;-78
2021/04/09 03:33:52;;;;;;;464.38;257.77;;;;;;;;;;4991919;28;20066;-80
2021/04/09 03:36:19;;;;;;;410.42;246.23;;;;;;;;;;4966199;28;20051;-79
2021/04/09 03:38:45;;;;;;;410.15;243.38;;;;;;;;;;4975138;28;20026;-79
2021/04/09 03:41:11;;;;;;;417.25;240.68;;;;;;;;;;4975863;28;20081;-80
2021/04/09 03:43:37;;;;;;;468.00;259.15;;;;;;;;;;4972320;28;20041;-78
2021/04/09 03:46:03;;;;;;;421.10;243.90;;;;;;;;;;4992735;28;20030;-79
2021/04/09 03:48:29;;;;;;;461.15;259.08;;;;;;;;;;4974810;28;20041;-78
2021/04/09 03:50:55;;;;;;;463.88;259.38;;;;;;;;;;4973797;28;20027;-81
2021/04/09 03:53:21;;;;;;;417.63;242.02;;;;;;;;;;4992406;28;20105;-79
2021/04/09 03:55:47;;;;;;;408.98;242.88;;;;;;;;;;4992639;28;20032;-78
2021/04/09 03:58:13;;;;;;;415.05;248.23;;;;;;;;;;4970946;28;20034;-81
2021/04/09 04:00:39;;;;;;;468.80;261.65;;;;;;;;;;4974872;28;20080;-78
2021/04/09 04:03:05;;;;;;;448.50;256.83;;;;;;;;;;4992540;28;20037;-78
2021/04/09 04:05:31;;;;;;;416.95;239.50;;;;;;;;;;4992926;28;20039;-79
2021/04/09 04:07:57;;;;;;;417.60;249.25;;;;;;;;;;4990974;28;20034;-79
2021/04/09 04:10:23;;;;;;;479.58;264.45;;;;;;;;;;4974900;28;20345;-78
2021/04/09 04:12:49;;;;;;;440.08;250.60;;;;;;;;;;4974293;28;20030;-80
2021/04/09 04:15:15;;;;;;;414.67;249.77;;;;;;;;;;4973027;28;20045;-78
2021/04/09 04:17:41;;;;;;;409.45;239.65;;;;;;;;;;4974659;28;20030;-78
2021/04/09 04:20:07;;;;;;;413.90;243.43;;;;;;;;;;4972477;28;20479;-79
2021/04/09 04:22:33;;;;;;;441.70;259.42;;;;;;;;;;4972753;28;20030;-78
2021/04/09 04:24:59;;;;;;;417.85;244.55;;;;;;;;;;4973909;28;20026;-79
2021/04/09 04:27:25;;;;;;;450.20;255.25;;;;;;;;;;4985223;28;20027;-78
2021/04/09 04:29:51;;;;;;;444.13;254.63;;;;;;;;;;4974598;28;20073;-79
2021/04/09 04:32:17;;;;;;;444.48;259.25;;;;;;;;;;4969985;28;20027;-78
2021/04/09 04:34:43;;;;;;;452.75;268.70;;;;;;;;;;4992184;28;20454;-79
2021/04/09 04:37:09;;;;;;;428.33;252.20;;;;;;;;;;4974794;28;20077;-79
2021/04/09 04:39:35;;;;;;;425.17;250.82;;;;;;;;;;4972951;28;20030;-79
2021/04/09 04:42:01;;;;;;;435.05;257.25;;;;;;;;;;4990632;28;20065;-79
2021/04/09 04:44:27;;;;;;;442.33;254.65;;;;;;;;;;4963398;28;20050;-82
2021/04/09 04:46:53;;;;;;;448.27;262.98;;;;;;;;;;4970372;28;20035;-78
2021/04/09 04:49:19;;;;;;;419.17;244.57;;;;;;;;;;4969073;28;20021;-78
2021/04/09 04:51:45;;;;;;;421.17;242.40;;;;;;;;;;4969444;28;20031;-78
2021/04/09 04:54:11;;;;;;;431.08;247.15;;;;;;;;;;4973194;28;20070;-81
2021/04/09 04:56:37;;;;;;;446.85;257.13;;;;;;;;;;4974654;28;20055;-79
2021/04/09 04:59:03;;;;;;;446.10;260.90;;;;;;;;;;4974674;28;20030;-79
2021/04/09 05:01:29;;;;;;;439.83;261.73;;;;;;;;;;4974752;28;20112;-79
2021/04/09 05:03:55;;;;;;;413.10;242.70;;;;;;;;;;4990759;28;20023;-79
2021/04/09 05:06:21;;;;;;;412.55;251.30;;;;;;;;;;4974174;28;20014;-80
2021/04/09 05:08:47;;;;;;;413.33;247.73;;;;;;;;;;4974485;28;20093;-77
2021/04/09 05:11:13;;;;;;;457.77;256.58;;;;;;;;;;4962342;28;20030;-78
2021/04/09 05:13:39;;;;;;;452.85;264.83;;;;;;;;;;4988510;28;20031;-77
2021/04/09 05:16:05;;;;;;;439.58;252.43;;;;;;;;;;4973780;28;20022;-78
2021/04/09 05:18:31;;;;;;;430.25;249.73;;;;;;;;;;4972714;28;20037;-79
2021/04/09 05:20:57;;;;;;;436.13;251.90;;;;;;;;;;4973489;28;20026;-79
2021/04/09 05:23:23;;;;;;;452.10;258.00;;;;;;;;;;4972905;28;20067;-78
2021/04/09 05:25:49;;;;;;;449.60;260.90;;;;;;;;;;4975119;28;20026;-78
2021/04/09 05:28:15;;;;;;;420.00;250.07;;;;;;;;;;4977650;28;20038;-79
2021/04/09 05:30:41;;;;;;;408.63;244.43;;;;;;;;;;4977081;28;20026;-78
2021/04/09 05:33:08;;;;;;;412.15;248.52;;;;;;;;;;4976852;28;20029;-78
2021/04/09 05:35:34;;;;;;;432.08;252.65;;;;;;;;;;4976804;28;20046;-77
2021/04/09 05:38:00;;;;;;;456.05;262.73;;;;;;;;;;4993998;28;20061;-78
2021/04/09 05:40:26;;;;;;;443.95;259.83;;;;;;;;;;4976777;28;20121;-78
2021/04/09 05:42:56;;;;;;;450.92;261.67;;;;;;;;;;4976029;28;20534;-78
2021/04/09 05:45:22;;;;;;;451.23;257.92;;;;;;;;;;4962389;28;20026;-78
2021/04/09 05:47:48;;;;;;;409.02;248.70;;;;;;;;;;4977097;28;20486;-78
2021/04/09 05:50:14;;;;;;;408.50;252.00;;;;;;;;;;4971331;28;20022;-78
2021/04/09 05:52:40;;;;;;;411.25;247.15;;;;;;;;;;4962219;28;20041;-77
2021/04/09 05:55:06;;;;;;;411.40;246.10;;;;;;;;;;4991616;28;20102;-78
2021/04/09 05:57:32;;;;;;;411.02;242.80;;;;;;;;;;4993596;28;20034;-80
2021/04/09 05:59:58;;;;;;;425.23;258.52;;;;;;;;;;4969195;28;20038;-78
2021/04/09 06:02:24;;;;;;;466.98;265.08;;;;;;;;;;4994811;28;20117;-80
2021/04/09 06:04:50;;;;;;;449.30;265.85;;;;;;;;;;4965308;28;20046;-78
2021/04/09 06:07:16;;;;;;;446.30;253.30;;;;;;;;;;4978878;28;20030;-78
2021/04/09 06:09:42;;;;;;;425.83;257.75;;;;;;;;;;4976656;28;20050;-77
2021/04/09 06:12:08;;;;;;;458.45;261.20;;;;;;;;;;4973584;28;20027;-78
2021/04/09 06:14:35;;;;;;;456.73;262.13;;;;;;;;;;4990615;28;20026;-77
2021/04/09 06:17:02;;;;;;;463.40;262.88;;;;;;;;;;4993270;28;20037;-78
2021/04/09 06:19:28;;;;;;;429.00;250.23;;;;;;;;;;4976569;28;20026;-79
2021/04/09 06:21:54;;;;;;;464.98;258.60;;;;;;;;;;4983031;28;20031;-79
2021/04/09 06:24:20;;;;;;;434.42;254.25;;;;;;;;;;4993448;28;20046;-77
2021/04/09 06:26:46;;;;;;;417.75;255.32;;;;;;;;;;4976680;28;20069;-77
2021/04/09 06:29:12;;;;;;;430.08;251.05;;;;;;;;;;4975488;28;20014;-78
2021/04/09 06:31:38;;;;;;;438.80;268.17;;;;;;;;;;4989007;28;20447;-78
2021/04/09 06:34:04;;;;;;;464.40;262.83;;;;;;;;;;4995550;28;20387;-77
2021/04/09 06:36:30;;;;;;;454.63;258.85;;;;;;;;;;4973901;28;20181;-77
2021/04/09 06:38:56;;;;;;;431.33;260.95;;;;;;;;;;4973829;28;20081;-78
2021/04/09 06:41:22;;;;;;;466.58;274.02;;;;;;;;;;4991485;28;20105;-80
2021/04/09 06:43:48;;;;;;;462.20;270.77;;;;;;;;;;4973705;28;20041;-78
2021/04/09 06:46:14;;;;;;;422.13;262.77;;;;;;;;;;4975799;28;20508;-78
2021/04/09 06:48:40;;;;;;;424.75;253.40;;;;;;;;;;4973972;28;20462;-79
2021/04/09 06:51:06;;;;;;;462.00;274.05;;;;;;;;;;4974445;28;20113;-79
2021/04/09 06:53:33;;;;;;;433.33;262.23;;;;;;;;;;4995185;28;20034;-77
2021/04/09 06:56:00;;;;;;;422.98;257.17;;;;;;;;;;4976100;28;20048;-78
2021/04/09 06:58:26;;;;;;;422.23;253.27;;;;;;;;;;4974814;28;20065;-77
2021/04/09 07:00:53;;;;;;;425.98;257.55;;;;;;;;;;4998499;28;20039;-79
2021/04/09 07:03:19;;;;;;;436.85;272.67;;;;;;;;;;4970412;28;20035;-80
2021/04/09 07:05:45;;;;;;;436.75;264.45;;;;;;;;;;4988577;28;20033;-78
2021/04/09 07:08:11;;;;;;;437.20;260.80;;;;;;;;;;4974052;28;20113;-78
2021/04/09 07:10:37;;;;;;;463.45;271.60;;;;;;;;;;4974906;28;20118;-80
2021/04/09 07:13:09;;;;;;;471.80;281.40;;;;;;;;;;4991398;28;20030;-77
2021/04/09 07:15:45;;;;;;;469.80;280.98;;;;;;;;;;4974495;28;20030;-81
2021/04/09 07:18:13;;;;;;;454.70;269.08;;;;;;;;;;4988291;28;20034;-78
2021/04/09 07:20:39;;;;;;;420.30;263.27;;;;;;;;;;4975976;28;20125;-80
2021/04/09 07:23:07;;;;;;;417.77;260.98;;;;;;;;;;4974495;28;20090;-80
2021/04/09 07:25:46;;;;;;;428.75;271.58;;;;;;;;;;4993022;28;20367;-82
2021/04/09 07:28:15;;;;;;;471.50;278.48;;;;;;;;;;4990227;28;20038;-76
2021/04/09 07:30:42;;;;;;;458.17;275.50;;;;;;;;;;4985905;28;20023;-80
2021/04/09 07:33:12;;;;;;;463.52;276.75;;;;;;;;;;4968076;28;20034;-79
2021/04/09 07:35:38;;;;;;;;;;;;;;;;;;4977400;28;20050;-79
2021/04/09 07:38:04;;;;;;;430.27;271.17;;;;;;;;;;4974450;28;19917;-78
2021/04/09 07:40:31;;;;;;;415.95;273.40;;;;;;;;;;4973948;28;20038;-77
2021/04/09 07:42:58;;;;;;;415.63;271.80;;;;;;;;;;4975665;28;20088;-80
2021/04/09 07:45:27;;;;;;;419.50;285.23;;;;;;;;;;4991217;28;20145;-78
2021/04/09 07:48:01;;;;;;;416.20;277.45;;;;;;;;;;4967777;28;20023;-80
2021/04/09 07:50:33;;;;;;;421.42;275.00;;;;;;;;;;4993756;28;20036;-79
2021/04/09 07:53:00;;;;;;;416.00;279.42;;;;;;;;;;4974866;28;20026;-82
2021/04/09 07:55:29;;;;;;;425.40;282.85;;;;;;;;;;4957194;28;20018;-79
2021/04/09 07:57:54;;;;;;;421.85;287.42;;;;;;;;;;4972005;28;20039;-78
2021/04/09 08:00:22;;;;;;;421.00;286.10;;;;;;;;;;4970724;28;20038;-79
2021/04/09 08:02:49;;;;;;;423.02;287.65;;;;;;;;;;4990186;28;20114;-78
2021/04/09 08:05:16;;;;;;;422.95;292.45;;;;;;;;;;4991441;28;20105;-77
2021/04/09 08:07:42;;;;;;;422.92;288.73;;;;;;;;;;4972945;28;20038;-77
2021/04/09 08:10:09;;;;;;;412.55;279.83;;;;;;;;;;4991083;28;20589;-75
2021/04/09 08:12:36;;;;;;;417.20;280.52;;;;;;;;;;4974249;28;20029;-77
2021/04/09 08:15:11;;;;;;;423.38;289.92;;;;;;;;;;4971800;28;20019;-78
2021/04/09 08:17:38;;;;;;;423.10;287.20;;;;;;;;;;4972681;28;20053;-76
2021/04/09 08:20:15;;;;;;;414.80;281.25;;;;;;;;;;4990850;28;20392;-78
2021/04/09 08:22:42;;;;;;;412.45;283.27;;;;;;;;;;4969639;28;20026;-81
2021/04/09 08:25:09;;;;;;;419.15;291.60;;;;;;;;;;4975898;28;20068;-76
2021/04/09 08:27:36;;;;;;;419.30;293.45;;;;;;;;;;4983403;28;20569;-79
2021/04/09 08:30:03;;;;;;;420.35;289.25;;;;;;;;;;4977232;28;20022;-80
2021/04/09 08:32:30;;;;;;;424.60;297.77;;;;;;;;;;4990691;28;20030;-77
2021/04/09 08:34:57;;;;;;;419.60;294.90;;;;;;;;;;4972541;28;20077;-79
2021/04/09 08:37:23;;;;;;;426.58;297.63;;;;;;;;;;4989305;28;20018;-78
2021/04/09 08:39:50;;;;;;;418.67;294.20;;;;;;;;;;4990431;28;20026;-76
2021/04/09 08:42:16;;;;;;;420.70;301.65;;;;;;;;;;4973694;28;20018;-78
2021/04/09 08:44:43;;;;;;;425.88;303.85;;;;;;;;;;4987705;28;20038;-80
2021/04/09 08:47:11;;;;;;;423.25;302.92;;;;;;;;;;4973392;28;20691;-78
2021/04/09 08:49:37;;;;;;;418.88;304.23;;;;;;;;;;4973505;28;20022;-78
2021/04/09 08:52:05;;;;;;;421.88;308.83;;;;;;;;;;4972558;28;20038;-79
2021/04/09 08:54:31;;;;;;;420.77;313.05;;;;;;;;;;4973402;28;20085;-77
2021/04/09 08:56:59;;;;;;;424.15;314.92;;;;;;;;;;4974331;28;20022;-79
2021/04/09 08:59:47;;;;;;;423.00;317.63;;;;;;;;;;4974453;28;20037;-80
2021/04/09 09:02:16;;;;;;;428.73;321.13;;;;;;;;;;4990655;28;20407;-74
2021/04/09 09:04:57;;;;;;;429.65;327.35;;;;;;;;;;4977932;28;20014;-76
2021/04/09 09:07:42;;;;;;;427.42;329.73;;;;;;;;;;4963055;28;20022;-75
2021/04/09 09:10:20;;;;;;;423.48;330.27;;;;;;;;;;4994868;28;20023;-75
2021/04/09 09:13:15;;;;;;;420.58;329.42;;;;;;;;;;4994180;28;20101;-75
2021/04/09 09:15:44;;;;;;;422.08;327.55;;;;;;;;;;4969610;28;20034;-73
2021/04/09 09:18:22;;;;;;;419.17;327.63;;;;;;;;;;4995330;28;20026;-75
2021/04/09 09:21:03;;;;;;;421.90;329.00;;;;;;;;;;4977769;28;20027;-76
2021/04/09 09:23:50;;;;;;;418.35;326.08;;;;;;;;;;4994181;28;20038;-78
2021/04/09 09:26:38;;;;;;;418.30;324.70;;;;;;;;;;4970497;28;20023;-79
2021/04/09 09:29:23;;;;;;;423.77;323.92;;;;;;;;;;4972718;28;20423;-77
2021/04/09 09:31:49;;;;;;;422.30;323.83;;;;;;;;;;4972168;28;20026;-77
2021/04/09 09:34:16;;;;;;;421.75;329.73;;;;;;;;;;4971232;28;20022;-76
2021/04/09 09:37:01;;;;;;;420.65;328.60;;;;;;;;;;4975593;28;20570;-74
2021/04/09 09:39:39;;;;;;;424.38;329.30;;;;;;;;;;4975360;28;20034;-75
2021/04/09 09:42:10;;;;;;;418.45;326.55;;;;;;;;;;4977600;28;20032;-76
2021/04/09 09:44:44;;;;;;;424.33;330.25;;;;;;;;;;4976881;28;20030;-76
2021/04/09 09:47:19;;;;;;;417.70;323.58;;;;;;;;;;4977033;28;20048;-77
2021/04/09 09:50:25;;;;;;;413.92;316.80;;;;;;;;;;4977219;28;20018;-75
2021/04/09 09:53:03;;;;;;;413.92;311.63;;;;;;;;;;4992341;28;20048;-74
2021/04/09 09:55:37;;;;;;;417.63;317.95;;;;;;;;;;4975309;28;20027;-77
2021/04/09 09:58:30;;;;;;;419.08;311.98;;;;;;;;;;4992733;28;20077;-79
2021/04/09 10:01:06;;;;;;;418.25;310.73;;;;;;;;;;4975459;28;20042;-78
2021/04/09 10:03:34;;;;;;;413.60;307.65;;;;;;;;;;4976637;28;20030;-77
2021/04/09 10:06:01;;;;;;;419.63;315.08;;;;;;;;;;4994708;28;20138;-76
2021/04/09 10:08:29;;;;;;;420.45;308.20;;;;;;;;;;4977790;28;20667;-76
2021/04/09 10:11:00;;;;;;;420.70;308.13;;;;;;;;;;4975758;28;20027;-79
2021/04/09 10:13:26;;;;;;;413.02;306.25;;;;;;;;;;4991506;28;20046;-77
2021/04/09 10:15:53;;;;;;;416.42;306.15;;;;;;;;;;4964402;28;20022;-76
2021/04/09 10:18:19;;;;;;;416.65;310.98;;;;;;;;;;4981311;28;20037;-76
2021/04/09 10:20:50;;;;;;;422.45;316.63;;;;;;;;;;4993868;28;20038;-79
2021/04/09 10:23:21;;;;;;;416.40;305.10;;;;;;;;;;4976390;28;20026;-79
2021/04/09 10:25:51;;;;;;;416.83;306.08;;;;;;;;;;4976767;28;20065;-77
2021/04/09 10:28:17;;;;;;;410.50;299.73;;;;;;;;;;4976799;28;20030;-77
2021/04/09 10:30:43;;;;;;;415.42;305.38;;;;;;;;;;4977024;28;20117;-77
2021/04/09 10:33:09;;;;;;;415.05;304.20;;;;;;;;;;4978047;28;20030;-77
2021/04/09 10:35:35;;;;;;;417.13;306.25;;;;;;;;;;4989754;28;20070;-75
2021/04/09 10:38:17;;;;;;;423.33;308.73;;;;;;;;;;4971048;28;20409;-74
2021/04/09 10:40:56;;;;;;;418.38;311.98;;;;;;;;;;4976389;28;20037;-78
2021/04/09 10:43:28;;;;;;;422.57;322.30;;;;;;;;;;4975381;28;20041;-77
2021/04/09 10:46:14;;;;;;;418.10;327.33;;;;;;;;;;4976286;28;20109;-77
2021/04/09 10:48:41;;;;;;;420.02;332.85;;;;;;;;;;4993591;28;20390;-76
2021/04/09 10:51:08;;;;;;;418.25;331.15;;;;;;;;;;4976182;28;20138;-78
2021/04/09 10:53:34;;;;;;;418.15;327.40;;;;;;;;;;4976163;28;20478;-77
2021/04/09 10:56:12;;;;;;;416.50;322.90;;;;;;;;;;4976729;28;20057;-79
2021/04/09 10:58:40;;;;;;;415.75;315.63;;;;;;;;;;4994283;28;20019;-78
2021/04/09 11:01:07;;;;;;;417.50;315.58;;;;;;;;;;4995986;28;20486;-80
2021/04/09 11:03:33;;;;;;;414.95;314.17;;;;;;;;;;4995638;28;20467;-79
2021/04/09 11:06:00;;;;;;;416.63;313.85;;;;;;;;;;4977381;28;20029;-80
2021/04/09 11:08:34;;;;;;;415.60;308.42;;;;;;;;;;4995596;28;20027;-79
2021/04/09 11:11:14;;;;;;;417.08;307.05;;;;;;;;;;4977496;28;20026;-77
2021/04/09 11:13:40;;;;;;;;;;;;;;;;;;4976289;28;20022;-82
2021/04/09 11:16:07;;;;;;;408.25;287.88;;;;;;;;;;4977652;28;20380;-81
2021/04/09 11:19:08;;;;;;;412.42;296.58;;;;;;;;;;5000320;28;20030;-77
2021/04/09 11:21:47;;;;;;;412.92;296.50;;;;;;;;;;4911958;29;20084;-79
2021/04/09 11:24:24;;;;;;;412.13;290.17;;;;;;;;;;4968564;28;20038;-79
2021/04/09 11:26:51;;;;;;;413.48;293.33;;;;;;;;;;4994592;28;20486;-78
2021/04/09 11:29:24;;;;;;;410.25;287.77;;;;;;;;;;4977497;28;20022;-78
2021/04/09 11:31:51;;;;;;;411.02;287.15;;;;;;;;;;4993859;28;20022;-79
2021/04/09 11:34:17;;;;;;;413.10;289.42;;;;;;;;;;4994129;28;20062;-79
2021/04/09 11:36:43;;;;;;;406.05;283.98;;;;;;;;;;4976749;28;20058;-79
2021/04/09 11:39:09;;;;;;;412.92;290.10;;;;;;;;;;4994312;28;20032;-79
2021/04/09 11:41:36;;;;;;;411.77;289.65;;;;;;;;;;4976179;28;20069;-77
2021/04/09 11:44:22;;;;;;;414.77;288.60;;;;;;;;;;4991356;28;20029;-81
2021/04/09 11:46:49;;;;;;;414.42;289.02;;;;;;;;;;4975762;28;20042;-79
2021/04/09 11:49:15;;;;;;;414.20;292.98;;;;;;;;;;4975379;28;20530;-77
2021/04/09 11:51:41;;;;;;;411.25;288.63;;;;;;;;;;4973860;28;20038;-75
2021/04/09 11:54:11;;;;;;;412.55;296.30;;;;;;;;;;4992706;28;20018;-77
2021/04/09 11:56:44;;;;;;;420.25;293.52;;;;;;;;;;4975410;28;20022;-76
2021/04/09 11:59:11;;;;;;;411.17;293.08;;;;;;;;;;4975357;28;20034;-80
2021/04/09 12:01:38;;;;;;;419.52;294.90;;;;;;;;;;4974854;28;20070;-77
2021/04/09 12:04:04;;;;;;;410.88;297.25;;;;;;;;;;4974703;28;20045;-78
2021/04/09 12:06:37;;;;;;;413.05;295.55;;;;;;;;;;4974892;28;20034;-75
2021/04/09 12:09:04;;;;;;;408.80;297.17;;;;;;;;;;4991802;28;20518;-77
2021/04/09 12:11:30;;;;;;;411.10;295.20;;;;;;;;;;4975054;28;20018;-75
2021/04/09 12:13:56;;;;;;;418.13;298.10;;;;;;;;;;4973104;28;20037;-75
2021/04/09 12:16:23;;;;;;;419.48;304.20;;;;;;;;;;4974637;28;20089;-75
2021/04/09 12:18:49;;;;;;;418.30;316.00;;;;;;;;;;4991841;28;20045;-75
2021/04/09 12:21:15;;;;;;;423.15;329.17;;;;;;;;;;4992700;28;20049;-75
2021/04/09 12:23:41;;;;;;;427.75;333.55;;;;;;;;;;4992361;28;20028;-77
2021/04/09 12:26:07;;;;;;;420.50;334.27;;;;;;;;;;4974482;28;20463;-81
2021/04/09 12:28:33;;;;;;;425.88;336.17;;;;;;;;;;4974673;28;20033;-77
2021/04/09 12:30:59;;;;;;;421.13;336.88;;;;;;;;;;4974788;28;20042;-77
2021/04/09 12:33:25;;;;;;;424.17;338.85;;;;;;;;;;4974102;28;20500;-76
2021/04/09 12:35:51;;;;;;;421.88;331.38;;;;;;;;;;4971753;28;20038;-77
2021/04/09 12:38:17;;;;;;;423.67;335.42;;;;;;;;;;4974981;28;20042;-78
2021/04/09 12:40:43;;;;;;;428.90;329.85;;;;;;;;;;4992433;28;20601;-77
2021/04/09 12:43:09;;;;;;;424.67;331.88;;;;;;;;;;4974433;28;20117;-75
2021/04/09 12:45:35;;;;;;;423.73;330.08;;;;;;;;;;4973492;28;20030;-78
2021/04/09 12:48:01;;;;;;;414.38;321.58;;;;;;;;;;4975209;28;20090;-78
2021/04/09 12:50:27;;;;;;;414.42;320.92;;;;;;;;;;4974360;28;20093;-75
2021/04/09 12:52:53;;;;;;;418.70;324.83;;;;;;;;;;4974131;28;20058;-81
2021/04/09 12:55:19;;;;;;;422.80;321.00;;;;;;;;;;4992496;28;20030;-80
2021/04/09 12:57:45;;;;;;;419.08;321.33;;;;;;;;;;4992863;28;20027;-80
2021/04/09 13:00:12;;;;;;;419.55;319.98;;;;;;;;;;4975539;28;20050;-78
2021/04/09 13:02:38;;;;;;;418.88;323.30;;;;;;;;;;4975151;28;20026;-76
2021/04/09 13:05:04;;;;;;;424.73;326.48;;;;;;;;;;4974954;28;20474;-78
2021/04/09 13:07:31;;;;;;;418.77;322.35;;;;;;;;;;4974876;28;20057;-77
2021/04/09 13:09:57;;;;;;;413.48;317.52;;;;;;;;;;4992336;28;20471;-77
2021/04/09 13:12:26;;;;;;;421.10;318.42;;;;;;;;;;4992536;28;20062;-77
2021/04/09 13:14:52;;;;;;;420.67;322.83;;;;;;;;;;4990161;28;20046;-79
2021/04/09 13:17:18;;;;;;;414.02;316.60;;;;;;;;;;4974821;28;20352;-76
2021/04/09 13:19:44;;;;;;;416.08;318.35;;;;;;;;;;4975039;28;20089;-77
2021/04/09 13:22:10;;;;;;;412.40;317.17;;;;;;;;;;4975985;28;20379;-77
2021/04/09 13:24:36;;;;;;;414.58;317.60;;;;;;;;;;4975023;28;20030;-76
2021/04/09 13:27:05;;;;;;;414.67;321.05;;;;;;;;;;4974840;28;20702;-77
2021/04/09 13:29:32;;;;;;;410.90;312.27;;;;;;;;;;4975085;28;20703;-79
2021/04/09 13:31:58;;;;;;;417.73;321.25;;;;;;;;;;4992200;28;20027;-77
2021/04/09 13:34:25;;;;;;;417.77;317.75;;;;;;;;;;4974326;28;20036;-77
2021/04/09 13:36:51;;;;;;;416.35;311.98;;;;;;;;;;4974930;28;20058;-78
2021/04/09 13:39:17;;;;;;;412.25;314.70;;;;;;;;;;4992270;28;20022;-78
2021/04/09 13:41:43;;;;;;;413.15;314.13;;;;;;;;;;4974731;28;20054;-76
2021/04/09 13:44:09;;;;;;;411.23;309.98;;;;;;;;;;4973200;28;20025;-78
2021/04/09 13:46:35;;;;;;;412.95;314.42;;;;;;;;;;4994619;28;20744;-77
2021/04/09 13:49:01;;;;;;;415.98;313.08;;;;;;;;;;4978056;28;20030;-77
2021/04/09 13:51:27;;;;;;;418.67;313.83;;;;;;;;;;4978315;28;20031;-81
2021/04/09 13:53:53;;;;;;;412.20;308.25;;;;;;;;;;4978690;28;20078;-78
2021/04/09 13:56:19;;;;;;;420.80;310.65;;;;;;;;;;4979317;28;20442;-78
2021/04/09 13:58:45;;;;;;;418.35;311.35;;;;;;;;;;4996212;28;20152;-80
2021/04/09 14:01:20;;;;;;;412.85;309.45;;;;;;;;;;4978598;28;20463;-76